createdAt,value
2024-04-24T00:01:33.423Z,23.39
2024-04-24T00:03:35.309Z,23.40
2024-04-24T00:05:37.362Z,23.39
2024-04-24T00:07:39.255Z,23.38
2024-04-24T00:09:41.082Z,23.36
2024-04-24T00:11:42.911Z,23.32
2024-04-24T00:13:44.719Z,23.35
2024-04-24T00:15:46.543Z,23.35
2024-04-24T00:17:48.613Z,23.32
2024-04-24T00:19:50.370Z,23.29
2024-04-24T00:21:52.127Z,23.28
2024-04-24T00:23:53.829Z,23.28
2024-04-24T00:25:57.111Z,23.31
2024-04-24T00:27:58.899Z,23.29
2024-04-24T00:30:00.683Z,23.29
2024-04-24T00:32:06.947Z,23.29
2024-04-24T00:34:09.066Z,23.30
2024-04-24T00:36:10.917Z,23.29
2024-04-24T00:38:12.849Z,23.28
2024-04-24T00:40:14.944Z,23.27
2024-04-24T00:42:20.632Z,23.28
2024-04-24T00:44:22.546Z,23.26
2024-04-24T00:46:27.655Z,23.24
2024-04-24T00:48:30.472Z,23.23
2024-04-24T00:50:32.986Z,23.23
2024-04-24T00:52:35.251Z,23.25
2024-04-24T00:54:37.230Z,23.25
2024-04-24T00:56:39.854Z,23.25
2024-04-24T00:58:41.686Z,23.23
2024-04-24T01:00:44.340Z,23.22
2024-04-24T01:02:46.291Z,23.23
2024-04-24T01:04:48.345Z,23.23
2024-04-24T01:06:51.734Z,23.22
2024-04-24T01:08:53.798Z,23.23
2024-04-24T01:11:00.077Z,23.21
2024-04-24T01:13:01.822Z,23.18
2024-04-24T01:15:03.652Z,23.16
2024-04-24T01:17:09.664Z,23.16
2024-04-24T01:19:23.540Z,23.15
2024-04-24T01:21:34.028Z,23.13
2024-04-24T01:24:05.534Z,23.11
2024-04-24T01:26:27.982Z,23.10
2024-04-24T01:28:30.449Z,23.07
2024-04-24T01:30:32.295Z,23.08
2024-04-24T01:32:34.313Z,23.08
2024-04-24T01:34:36.170Z,23.05
2024-04-24T01:36:37.870Z,23.06
2024-04-24T01:38:39.655Z,23.07
2024-04-24T01:40:41.612Z,23.08
2024-04-24T01:42:43.335Z,23.08
2024-04-24T01:44:45.029Z,23.04
2024-04-24T01:46:46.835Z,23.05
2024-04-24T01:48:48.726Z,23.01
2024-04-24T01:50:50.479Z,23.05
2024-04-24T01:52:52.500Z,23.04
2024-04-24T01:54:54.410Z,23.05
2024-04-24T01:56:56.149Z,23.03
2024-04-24T01:58:57.831Z,23.00
2024-04-24T02:00:59.588Z,23.03
2024-04-24T02:03:01.404Z,22.99
2024-04-24T02:05:03.338Z,22.97
2024-04-24T02:07:05.048Z,23.01
2024-04-24T02:09:06.788Z,23.01
2024-04-24T02:11:08.581Z,23.04
2024-04-24T02:13:11.722Z,23.04
2024-04-24T02:15:13.798Z,23.06
2024-04-24T02:17:15.850Z,23.05
2024-04-24T02:19:17.723Z,23.06
2024-04-24T02:21:19.457Z,23.06
2024-04-24T02:23:21.742Z,23.06
2024-04-24T02:25:35.753Z,23.07
2024-04-24T02:27:37.695Z,23.06
2024-04-24T02:29:48.236Z,23.08
2024-04-24T02:31:56.368Z,23.03
2024-04-24T02:33:58.115Z,23.06
2024-04-24T02:36:00.018Z,23.06
2024-04-24T02:38:01.808Z,23.08
2024-04-24T02:40:03.856Z,23.03
2024-04-24T02:42:05.996Z,23.07
2024-04-24T02:44:07.856Z,23.09
2024-04-24T02:46:09.606Z,23.03
2024-04-24T02:48:11.521Z,23.05
2024-04-24T02:50:13.470Z,23.08
2024-04-24T02:52:15.304Z,23.07
2024-04-24T02:54:17.208Z,23.08
2024-04-24T02:56:19.095Z,23.06
2024-04-24T02:58:20.816Z,23.06
2024-04-24T03:00:25.142Z,23.07
2024-04-24T03:02:26.924Z,23.07
2024-04-24T03:04:28.675Z,23.07
2024-04-24T03:06:30.359Z,23.08
2024-04-24T03:08:32.147Z,23.07
2024-04-24T03:10:34.136Z,23.08
2024-04-24T03:12:35.910Z,23.06
2024-04-24T03:14:37.622Z,23.04
2024-04-24T03:16:39.339Z,23.00
2024-04-24T03:18:43.730Z,22.98
2024-04-24T03:20:45.820Z,22.98
2024-04-24T03:22:47.694Z,22.97
2024-04-24T03:24:49.453Z,22.97
2024-04-24T03:26:51.161Z,22.96
2024-04-24T03:28:52.883Z,22.97
2024-04-24T03:30:54.858Z,22.95
2024-04-24T03:32:56.755Z,22.94
2024-04-24T03:34:58.703Z,22.95
2024-04-24T03:37:00.470Z,22.92
2024-04-24T03:39:02.231Z,22.91
2024-04-24T03:41:04.188Z,22.89
2024-04-24T03:43:05.900Z,22.88
2024-04-24T03:45:07.784Z,22.89
2024-04-24T03:47:09.533Z,22.90
2024-04-24T03:49:11.746Z,22.90
2024-04-24T03:51:13.462Z,22.90
2024-04-24T03:53:15.201Z,22.92
2024-04-24T03:55:16.970Z,22.89
2024-04-24T03:57:18.719Z,22.90
2024-04-24T03:59:20.525Z,22.90
2024-04-24T04:01:26.316Z,22.87
2024-04-24T04:03:28.028Z,22.86
2024-04-24T04:05:29.759Z,22.84
2024-04-24T04:07:31.632Z,22.83
2024-04-24T04:09:33.375Z,22.82
2024-04-24T04:11:35.216Z,22.84
2024-04-24T04:13:37.051Z,22.81
2024-04-24T04:15:38.850Z,22.81
2024-04-24T04:17:41.174Z,22.81
2024-04-24T04:19:43.025Z,22.82
2024-04-24T04:21:44.747Z,22.80
2024-04-24T04:23:46.645Z,22.79
2024-04-24T04:25:48.621Z,22.79
2024-04-24T04:27:50.401Z,22.78
2024-04-24T04:29:52.251Z,22.77
2024-04-24T04:31:54.100Z,22.77
2024-04-24T04:33:55.821Z,22.77
2024-04-24T04:35:57.714Z,22.76
2024-04-24T04:38:00.020Z,22.75
2024-04-24T04:40:02.620Z,22.73
2024-04-24T04:42:04.592Z,22.72
2024-04-24T04:44:06.438Z,22.71
2024-04-24T04:46:08.272Z,22.70
2024-04-24T04:48:10.118Z,22.70
2024-04-24T04:50:12.123Z,22.68
2024-04-24T04:52:13.843Z,22.65
2024-04-24T04:54:15.772Z,22.62
2024-04-24T04:56:17.926Z,22.58
2024-04-24T04:58:19.722Z,22.61
2024-04-24T05:00:21.507Z,22.56
2024-04-24T05:02:23.414Z,22.60
2024-04-24T05:04:25.415Z,22.60
2024-04-24T05:06:27.606Z,22.62
2024-04-24T05:08:29.336Z,22.60
2024-04-24T05:10:31.490Z,22.57
2024-04-24T05:12:33.173Z,22.58
2024-04-24T05:14:35.130Z,22.58
2024-04-24T05:16:37.108Z,22.57
2024-04-24T05:18:40.007Z,22.57
2024-04-24T05:20:41.955Z,22.52
2024-04-24T05:22:52.078Z,22.53
2024-04-24T05:24:53.818Z,22.54
2024-04-24T05:27:14.173Z,22.54
2024-04-24T05:29:16.048Z,22.55
2024-04-24T05:31:17.851Z,22.53
2024-04-24T05:33:19.750Z,22.54
2024-04-24T05:35:21.686Z,22.57
2024-04-24T05:37:23.762Z,22.56
2024-04-24T05:39:25.671Z,22.56
2024-04-24T05:41:27.371Z,22.55
2024-04-24T05:43:29.085Z,22.58
2024-04-24T05:45:30.750Z,22.58
2024-04-24T05:47:32.627Z,22.57
2024-04-24T05:49:34.520Z,22.57
2024-04-24T05:51:36.235Z,22.57
2024-04-24T05:53:38.141Z,22.55
2024-04-24T05:55:39.943Z,22.57
2024-04-24T05:57:41.674Z,22.58
2024-04-24T05:59:43.350Z,22.59
2024-04-24T06:01:45.063Z,22.57
2024-04-24T06:03:46.744Z,22.59
2024-04-24T06:05:48.545Z,22.57
2024-04-24T06:07:50.591Z,22.56
2024-04-24T06:09:52.707Z,22.55
2024-04-24T06:11:54.687Z,22.58
2024-04-24T06:13:56.462Z,22.57
2024-04-24T06:15:58.163Z,22.59
2024-04-24T06:18:00.054Z,22.59
2024-04-24T06:20:01.928Z,22.57
2024-04-24T06:22:03.771Z,22.60
2024-04-24T06:24:07.700Z,22.60
2024-04-24T06:26:10.843Z,22.59
2024-04-24T06:28:13.260Z,22.60
2024-04-24T06:30:15.114Z,22.58
2024-04-24T06:32:17.003Z,22.59
2024-04-24T06:34:18.928Z,22.60
2024-04-24T06:36:20.593Z,22.60
2024-04-24T06:38:23.072Z,22.58
2024-04-24T06:40:24.809Z,22.57
2024-04-24T06:42:26.665Z,22.57
2024-04-24T06:44:29.177Z,22.59
2024-04-24T06:46:30.908Z,22.58
2024-04-24T06:48:32.868Z,22.58
2024-04-24T06:50:34.766Z,22.56
2024-04-24T06:52:36.748Z,22.55
2024-04-24T06:54:38.539Z,22.55
2024-04-24T06:56:40.247Z,22.54
2024-04-24T06:58:42.100Z,22.54
2024-04-24T07:00:44.013Z,22.52
2024-04-24T07:02:45.913Z,22.53
2024-04-24T07:04:47.813Z,22.49
2024-04-24T07:06:49.527Z,22.50
2024-04-24T07:08:51.393Z,22.46
2024-04-24T07:10:53.848Z,22.44
2024-04-24T07:12:55.791Z,22.39
2024-04-24T07:14:57.486Z,22.39
2024-04-24T07:16:59.205Z,22.34
2024-04-24T07:19:01.371Z,22.34
2024-04-24T07:21:03.418Z,22.33
2024-04-24T07:23:05.164Z,22.30
2024-04-24T07:25:07.099Z,22.28
2024-04-24T07:27:08.793Z,22.27
2024-04-24T07:29:10.946Z,22.24
2024-04-24T07:31:12.791Z,22.26
2024-04-24T07:33:16.221Z,22.25
2024-04-24T07:35:18.304Z,22.26
2024-04-24T07:37:20.051Z,22.28
2024-04-24T07:39:21.743Z,22.26
2024-04-24T07:41:23.492Z,22.21
2024-04-24T07:43:25.333Z,22.23
2024-04-24T07:45:27.314Z,22.19
2024-04-24T07:47:29.259Z,22.18
2024-04-24T07:49:31.127Z,22.12
2024-04-24T07:51:32.832Z,22.11
2024-04-24T07:53:36.379Z,22.10
2024-04-24T07:55:38.300Z,22.09
2024-04-24T07:57:40.072Z,22.12
2024-04-24T07:59:41.971Z,22.12
2024-04-24T08:01:43.976Z,22.09
2024-04-24T08:03:45.690Z,22.11
2024-04-24T08:05:47.509Z,22.14
2024-04-24T08:07:49.241Z,22.12
2024-04-24T08:09:50.957Z,22.07
2024-04-24T08:11:52.790Z,22.06
2024-04-24T08:13:54.624Z,22.10
2024-04-24T08:15:56.544Z,22.11
2024-04-24T08:17:58.337Z,22.10
2024-04-24T08:20:00.310Z,22.05
2024-04-24T08:22:02.223Z,21.99
2024-04-24T08:26:05.747Z,22.00
2024-04-24T08:28:08.798Z,21.99
2024-04-24T08:30:11.581Z,21.86
2024-04-24T08:32:13.471Z,21.86
2024-04-24T08:34:15.279Z,21.89
2024-04-24T08:36:17.307Z,21.87
2024-04-24T08:38:19.096Z,21.81
2024-04-24T08:40:21.232Z,21.77
2024-04-24T08:42:23.271Z,21.86
2024-04-24T08:44:32.345Z,21.88
2024-04-24T08:46:34.998Z,21.94
2024-04-24T08:48:41.344Z,21.99
2024-04-24T08:50:46.328Z,21.97
2024-04-24T08:52:52.762Z,21.91
2024-04-24T08:54:59.074Z,21.99
2024-04-24T08:57:02.416Z,21.90
2024-04-24T08:59:28.059Z,21.90
2024-04-24T09:01:33.483Z,21.90
2024-04-24T09:03:51.318Z,21.89
2024-04-24T09:05:55.676Z,21.91
2024-04-24T09:07:58.810Z,21.97
2024-04-24T09:10:02.478Z,21.98
2024-04-24T09:12:07.928Z,22.07
2024-04-24T09:14:09.816Z,22.21
2024-04-24T09:16:16.157Z,22.28
2024-04-24T09:18:17.961Z,22.35
2024-04-24T09:20:19.971Z,22.44
2024-04-24T09:22:21.704Z,22.51
2024-04-24T09:24:23.515Z,22.54
2024-04-24T09:26:26.623Z,22.53
2024-04-24T09:28:28.478Z,22.57
2024-04-24T09:30:30.740Z,22.59
2024-04-24T09:32:32.571Z,22.67
2024-04-24T09:34:34.313Z,22.76
2024-04-24T09:36:43.141Z,22.76
2024-04-24T09:38:46.330Z,22.75
2024-04-24T09:40:48.131Z,22.74
2024-04-24T09:42:50.164Z,22.74
2024-04-24T09:44:52.039Z,22.74
2024-04-24T09:46:54.209Z,22.77
2024-04-24T09:49:00.564Z,22.81
2024-04-24T09:51:02.447Z,22.82
2024-04-24T09:53:04.463Z,22.86
2024-04-24T09:55:06.541Z,22.83
2024-04-24T09:57:12.345Z,22.81
2024-04-24T09:59:15.963Z,22.81
2024-04-24T10:01:22.908Z,22.83
2024-04-24T10:03:27.106Z,22.86
2024-04-24T10:05:35.906Z,22.88
2024-04-24T10:07:56.718Z,22.89
2024-04-24T10:09:58.833Z,22.96
2024-04-24T10:12:06.078Z,23.00
2024-04-24T10:14:10.747Z,22.96
2024-04-24T10:16:12.825Z,22.96
2024-04-24T10:18:15.022Z,22.99
2024-04-24T10:20:22.602Z,23.01
2024-04-24T10:22:29.142Z,23.00
2024-04-24T10:24:31.502Z,23.08
2024-04-24T10:26:34.053Z,23.10
2024-04-24T10:28:36.233Z,23.10
2024-04-24T10:30:40.733Z,23.10
2024-04-24T10:32:42.601Z,23.14
2024-04-24T10:34:45.576Z,23.15
2024-04-24T10:36:47.669Z,23.20
2024-04-24T10:38:54.329Z,23.24
2024-04-24T10:40:56.479Z,23.23
2024-04-24T10:43:06.521Z,23.24
2024-04-24T10:45:10.071Z,23.33
2024-04-24T10:47:12.530Z,23.35
2024-04-24T10:49:16.156Z,23.34
2024-04-24T10:51:27.552Z,23.34
2024-04-24T10:53:31.496Z,23.40
2024-04-24T10:55:37.171Z,23.42
2024-04-24T10:57:39.013Z,23.43
2024-04-24T10:59:46.362Z,23.46
2024-04-24T11:01:53.547Z,23.48
2024-04-24T11:03:57.127Z,23.49
2024-04-24T11:06:09.859Z,23.51
2024-04-24T11:08:20.194Z,23.56
2024-04-24T11:10:22.715Z,23.56
2024-04-24T11:12:25.149Z,23.58
2024-04-24T11:14:26.965Z,23.61
2024-04-24T11:16:29.768Z,23.62
2024-04-24T11:18:34.154Z,23.64
2024-04-24T11:20:39.009Z,23.62
2024-04-24T11:22:40.781Z,23.66
2024-04-24T11:24:42.537Z,23.65
2024-04-24T11:26:44.490Z,23.62
2024-04-24T11:28:46.769Z,23.60
2024-04-24T11:30:50.363Z,23.60
2024-04-24T11:32:54.253Z,23.60
2024-04-24T11:34:56.370Z,23.61
2024-04-24T11:36:58.261Z,23.63
2024-04-24T11:39:03.528Z,23.65
2024-04-24T11:41:05.630Z,23.62
2024-04-24T11:43:07.668Z,23.64
2024-04-24T11:45:09.641Z,23.67
2024-04-24T11:47:11.621Z,23.69
2024-04-24T11:49:13.882Z,23.71
2024-04-24T11:51:18.400Z,23.68
2024-04-24T11:53:22.541Z,23.68
2024-04-24T11:55:24.934Z,23.68
2024-04-24T11:57:26.679Z,23.67
2024-04-24T11:59:30.751Z,23.69
2024-04-24T12:01:35.337Z,23.72
2024-04-24T12:03:37.141Z,23.73
2024-04-24T12:05:40.123Z,23.71
2024-04-24T12:07:45.772Z,23.74
2024-04-24T12:09:47.583Z,23.75
2024-04-24T12:11:50.685Z,23.74
2024-04-24T12:13:52.684Z,23.76
2024-04-24T12:15:59.119Z,23.81
2024-04-24T12:18:00.935Z,23.87
2024-04-24T12:20:05.310Z,23.95
2024-04-24T12:22:08.762Z,23.93
2024-04-24T12:24:10.568Z,23.97
2024-04-24T12:26:12.436Z,23.98
2024-04-24T12:28:14.200Z,24.01
2024-04-24T12:30:16.107Z,24.06
2024-04-24T12:32:18.161Z,24.08
2024-04-24T12:34:20.961Z,24.15
2024-04-24T12:36:22.894Z,24.13
2024-04-24T12:38:24.749Z,24.12
2024-04-24T12:40:26.655Z,24.12
2024-04-24T12:42:28.448Z,24.16
2024-04-24T12:44:30.818Z,24.17
2024-04-24T12:46:33.231Z,24.21
2024-04-24T12:48:37.345Z,24.17
2024-04-24T12:50:40.590Z,24.20
2024-04-24T12:52:42.540Z,24.24
2024-04-24T12:54:44.845Z,24.24
2024-04-24T12:56:48.934Z,24.24
2024-04-24T12:58:51.654Z,24.29
2024-04-24T13:00:54.442Z,24.29
2024-04-24T13:02:56.637Z,24.25
2024-04-24T13:04:58.427Z,24.27
2024-04-24T13:07:00.147Z,24.24
2024-04-24T13:09:01.832Z,24.24
2024-04-24T13:11:04.090Z,24.23
2024-04-24T13:13:06.218Z,24.21
2024-04-24T13:15:08.047Z,24.18
2024-04-24T13:17:12.690Z,24.20
2024-04-24T13:19:14.707Z,24.19
2024-04-24T13:21:19.558Z,24.18
2024-04-24T13:23:21.538Z,24.15
2024-04-24T13:25:23.346Z,24.15
2024-04-24T13:27:25.102Z,24.18
2024-04-24T13:29:26.999Z,24.14
2024-04-24T13:31:29.017Z,24.14
2024-04-24T13:33:30.944Z,24.13
2024-04-24T13:35:33.037Z,24.13
2024-04-24T13:37:34.971Z,24.08
2024-04-24T13:39:38.166Z,24.12
2024-04-24T13:41:41.281Z,24.14
2024-04-24T13:43:44.251Z,24.16
2024-04-24T13:45:46.113Z,24.15
2024-04-24T13:47:47.919Z,24.18
2024-04-24T13:49:49.766Z,24.16
2024-04-24T13:51:51.482Z,24.16
2024-04-24T13:53:53.254Z,24.16
2024-04-24T13:55:55.156Z,24.20
2024-04-24T13:57:56.986Z,24.21
2024-04-24T13:59:59.063Z,24.23
2024-04-24T14:02:00.838Z,24.23
2024-04-24T14:04:02.888Z,24.18
2024-04-24T14:06:05.099Z,24.19
2024-04-24T14:08:06.922Z,24.16
2024-04-24T14:10:08.820Z,24.14
2024-04-24T14:12:10.787Z,24.12
2024-04-24T14:14:12.637Z,24.13
2024-04-24T14:16:15.104Z,24.14
2024-04-24T14:18:17.230Z,24.10
2024-04-24T14:20:19.371Z,24.04
2024-04-24T14:22:21.256Z,24.03
2024-04-24T14:24:23.350Z,24.04
2024-04-24T14:26:25.487Z,24.10
2024-04-24T14:28:27.289Z,24.14
2024-04-24T14:30:29.023Z,24.20
2024-04-24T14:32:30.990Z,24.27
2024-04-24T14:34:32.755Z,24.31
2024-04-24T14:36:34.530Z,24.36
2024-04-24T14:38:36.532Z,24.37
2024-04-24T14:40:38.682Z,24.40
2024-04-24T14:42:42.164Z,24.40
2024-04-24T14:44:43.908Z,24.45
2024-04-24T14:46:45.622Z,24.48
2024-04-24T14:48:47.640Z,24.48
2024-04-24T14:50:49.535Z,24.49
2024-04-24T14:52:51.452Z,24.53
2024-04-24T14:54:53.397Z,24.57
2024-04-24T14:56:55.165Z,24.58
2024-04-24T14:58:56.892Z,24.62
2024-04-24T15:00:58.889Z,24.61
2024-04-24T15:03:00.837Z,24.59
2024-04-24T15:05:03.684Z,24.58
2024-04-24T15:07:11.914Z,24.62
2024-04-24T15:09:13.637Z,24.62
2024-04-24T15:11:15.525Z,24.63
2024-04-24T15:13:18.481Z,24.65
2024-04-24T15:15:20.320Z,24.66
2024-04-24T15:17:22.250Z,24.63
2024-04-24T15:19:24.056Z,24.65
2024-04-24T15:21:26.281Z,24.71
2024-04-24T15:23:28.206Z,24.69
2024-04-24T15:25:30.017Z,24.67
2024-04-24T15:27:32.715Z,24.67
2024-04-24T15:29:34.581Z,24.68
2024-04-24T15:31:36.320Z,24.73
2024-04-24T15:33:41.214Z,24.73
2024-04-24T15:35:44.896Z,24.72
2024-04-24T15:37:46.682Z,24.69
2024-04-24T15:39:48.401Z,24.68
2024-04-24T15:41:52.767Z,24.71
2024-04-24T15:43:54.751Z,24.72
2024-04-24T15:45:58.682Z,24.72
2024-04-24T15:48:00.696Z,24.70
2024-04-24T15:50:02.990Z,24.71
2024-04-24T15:52:04.826Z,24.69
2024-04-24T15:54:06.658Z,24.66
2024-04-24T15:56:08.687Z,24.62
2024-04-24T15:58:10.554Z,24.63
2024-04-24T16:00:13.024Z,24.57
2024-04-24T16:02:14.855Z,24.56
2024-04-24T16:04:16.626Z,24.59
2024-04-24T16:06:19.248Z,24.62
2024-04-24T16:08:20.992Z,24.61
2024-04-24T16:10:22.716Z,24.63
2024-04-24T16:12:25.709Z,24.62
2024-04-24T16:14:27.755Z,24.67
2024-04-24T16:16:29.501Z,24.64
2024-04-24T16:18:36.480Z,24.61
2024-04-24T16:20:44.886Z,24.60
2024-04-24T16:22:46.961Z,24.57
2024-04-24T16:24:48.718Z,24.60
2024-04-24T16:26:50.646Z,24.58
2024-04-24T16:28:52.381Z,24.56
2024-04-24T16:30:54.105Z,24.58
2024-04-24T16:32:56.314Z,24.58
2024-04-24T16:34:59.067Z,24.53
2024-04-24T16:37:01.069Z,24.45
2024-04-24T16:39:02.824Z,24.37
2024-04-24T16:41:06.132Z,24.33
2024-04-24T16:43:08.122Z,24.31
2024-04-24T16:45:10.850Z,24.30
2024-04-24T16:47:12.853Z,24.31
2024-04-24T16:49:14.745Z,24.30
2024-04-24T16:51:16.492Z,24.26
2024-04-24T16:53:18.277Z,24.27
2024-04-24T16:55:20.362Z,24.24
2024-04-24T16:57:22.606Z,24.23
2024-04-24T16:59:26.424Z,24.20
2024-04-24T17:01:28.221Z,24.16
2024-04-24T17:03:31.314Z,24.13
2024-04-24T17:05:33.318Z,24.09
2024-04-24T17:07:35.703Z,24.04
2024-04-24T17:09:37.443Z,24.03
2024-04-24T17:11:39.409Z,24.02
2024-04-24T17:13:41.637Z,24.03
2024-04-24T17:15:43.586Z,24.02
2024-04-24T17:17:45.698Z,23.99
2024-04-24T17:19:47.539Z,24.01
2024-04-24T17:21:49.816Z,24.02
2024-04-24T17:23:51.701Z,23.99
2024-04-24T17:25:53.617Z,23.97
2024-04-24T17:27:55.447Z,23.97
2024-04-24T17:29:58.909Z,23.94
2024-04-24T17:32:00.953Z,23.91
2024-04-24T17:34:02.813Z,23.91
2024-04-24T17:36:06.765Z,23.87
2024-04-24T17:38:08.951Z,23.92
2024-04-24T17:40:12.073Z,23.93
2024-04-24T17:42:13.964Z,23.91
2024-04-24T17:44:16.519Z,23.91
2024-04-24T17:46:18.703Z,23.88
2024-04-24T17:48:20.508Z,23.89
2024-04-24T17:50:24.759Z,23.88
2024-04-24T17:52:26.849Z,23.86
2024-04-24T17:54:28.672Z,23.86
2024-04-24T17:56:30.394Z,23.85
2024-04-24T17:58:32.245Z,23.84
2024-04-24T18:00:34.326Z,23.86
2024-04-24T18:02:37.685Z,23.88
2024-04-24T18:04:39.364Z,23.88
2024-04-24T18:06:41.061Z,23.90
2024-04-24T18:08:42.747Z,23.89
2024-04-24T18:10:45.099Z,23.89
2024-04-24T18:12:49.330Z,23.89
2024-04-24T18:14:51.253Z,23.88
2024-04-24T18:16:53.401Z,23.87
2024-04-24T18:18:55.515Z,23.86
2024-04-24T18:20:57.389Z,23.82
2024-04-24T18:22:59.241Z,23.83
2024-04-24T18:25:01.325Z,23.83
2024-04-24T18:27:03.220Z,23.86
2024-04-24T18:29:05.534Z,23.86
2024-04-24T18:31:07.993Z,23.88
2024-04-24T18:33:10.281Z,23.89
2024-04-24T18:35:12.502Z,23.89
2024-04-24T18:37:14.290Z,23.88
2024-04-24T18:39:16.125Z,23.87
2024-04-24T18:41:20.356Z,23.86
2024-04-24T18:43:22.455Z,23.84
2024-04-24T18:45:24.494Z,23.82
2024-04-24T18:47:27.177Z,23.79
2024-04-24T18:49:29.349Z,23.80
2024-04-24T18:51:33.541Z,23.83
2024-04-24T18:53:35.413Z,23.85
2024-04-24T18:55:37.317Z,23.87
2024-04-24T18:57:43.514Z,23.87
2024-04-24T18:59:45.719Z,23.86
2024-04-24T19:01:47.688Z,23.86
2024-04-24T19:03:49.491Z,23.85
2024-04-24T19:05:51.238Z,23.84
2024-04-24T19:07:53.020Z,23.81
2024-04-24T19:09:55.552Z,23.79
2024-04-24T19:11:59.501Z,23.77
2024-04-24T19:14:01.614Z,23.79
2024-04-24T19:16:03.769Z,23.80
2024-04-24T19:18:10.258Z,23.80
2024-04-24T19:20:12.244Z,23.82
2024-04-24T19:22:15.572Z,23.84
2024-04-24T19:24:17.391Z,23.84
2024-04-24T19:26:19.768Z,23.84
2024-04-24T19:28:21.836Z,23.84
2024-04-24T19:30:23.792Z,23.83
2024-04-24T19:32:26.019Z,23.81
2024-04-24T19:34:27.941Z,23.80
2024-04-24T19:36:29.790Z,23.78
2024-04-24T19:38:31.695Z,23.81
2024-04-24T19:40:34.517Z,23.79
2024-04-24T19:42:36.279Z,23.81
2024-04-24T19:44:38.255Z,23.82
2024-04-24T19:46:40.353Z,23.82
2024-04-24T19:48:44.980Z,23.86
2024-04-24T19:50:46.961Z,23.88
2024-04-24T19:52:49.471Z,23.90
2024-04-24T19:54:51.333Z,23.92
2024-04-24T19:56:53.875Z,23.90
2024-04-24T19:58:55.646Z,23.93
2024-04-24T20:00:57.503Z,23.91
2024-04-24T20:02:59.648Z,23.91
2024-04-24T20:05:01.555Z,23.90
2024-04-24T20:07:03.536Z,23.89
2024-04-24T20:09:05.333Z,23.91
2024-04-24T20:11:08.762Z,23.93
2024-04-24T20:13:13.385Z,23.92
2024-04-24T20:15:15.349Z,23.92
2024-04-24T20:17:22.654Z,23.91
2024-04-24T20:21:32.142Z,23.91
2024-04-24T20:23:34.074Z,23.89
2024-04-24T20:25:35.958Z,23.88
2024-04-24T20:27:37.797Z,23.88
2024-04-24T20:29:42.736Z,23.87
2024-04-24T20:31:44.775Z,23.89
2024-04-24T20:33:46.658Z,23.89
2024-04-24T20:35:48.528Z,23.90
2024-04-24T20:37:50.382Z,23.92
2024-04-24T20:39:52.197Z,23.91
2024-04-24T20:41:54.042Z,23.91
2024-04-24T20:43:58.435Z,23.90
2024-04-24T20:46:03.774Z,23.88
2024-04-24T20:48:06.126Z,23.88
2024-04-24T20:50:08.340Z,23.87
2024-04-24T20:52:12.248Z,23.88
2024-04-24T20:54:14.148Z,23.87
2024-04-24T20:56:18.868Z,23.88
2024-04-24T20:58:21.281Z,23.89
2024-04-24T21:00:23.025Z,23.90
2024-04-24T21:02:27.519Z,23.91
2024-04-24T21:04:29.461Z,23.90
2024-04-24T21:06:31.966Z,23.91
2024-04-24T21:08:37.299Z,23.92
2024-04-24T21:10:39.842Z,23.88
2024-04-24T21:12:43.196Z,23.88
2024-04-24T21:15:19.014Z,23.88
2024-04-24T21:17:20.795Z,23.88
2024-04-24T21:19:22.538Z,23.88
2024-04-24T21:21:25.270Z,23.89
2024-04-24T21:23:27.182Z,23.91
2024-04-24T21:25:29.135Z,23.92
2024-04-24T21:27:31.297Z,23.93
2024-04-24T21:29:33.888Z,23.94
2024-04-24T21:31:38.271Z,23.93
2024-04-24T21:33:40.218Z,23.93
2024-04-24T21:35:42.031Z,23.88
2024-04-24T21:37:43.802Z,23.88
2024-04-24T21:39:45.793Z,23.89
2024-04-24T21:41:47.633Z,23.90
2024-04-24T21:43:50.299Z,23.91
2024-04-24T21:45:52.795Z,23.92
2024-04-24T21:47:55.454Z,23.91
2024-04-24T21:49:57.870Z,23.93
2024-04-24T21:51:59.637Z,23.94
2024-04-24T21:54:01.632Z,23.94
2024-04-24T21:56:03.472Z,23.95
2024-04-24T21:58:05.539Z,23.92
2024-04-24T22:00:07.729Z,23.92
2024-04-24T22:02:10.490Z,23.92
2024-04-24T22:04:12.390Z,23.91
2024-04-24T22:06:19.242Z,23.91
2024-04-24T22:08:20.958Z,23.91
2024-04-24T22:10:22.882Z,23.93
2024-04-24T22:12:24.763Z,23.92
2024-04-24T22:14:27.572Z,23.95
2024-04-24T22:16:29.291Z,23.97
2024-04-24T22:18:31.648Z,23.98
2024-04-24T22:20:33.653Z,23.95
2024-04-24T22:22:35.670Z,23.97
2024-04-24T22:24:37.353Z,23.93
2024-04-24T22:26:39.128Z,23.91
2024-04-24T22:28:43.764Z,23.91
2024-04-24T22:30:47.147Z,23.89
2024-04-24T22:32:48.966Z,23.92
2024-04-24T22:34:50.665Z,23.92
2024-04-24T22:36:52.432Z,23.96
2024-04-24T22:38:54.195Z,23.97
2024-04-24T22:40:55.924Z,23.98
2024-04-24T22:42:57.726Z,23.99
2024-04-24T22:44:59.405Z,23.98
2024-04-24T22:47:01.215Z,23.96
2024-04-24T22:49:03.200Z,23.97
2024-04-24T22:51:05.254Z,23.95
2024-04-24T22:53:10.191Z,23.94
2024-04-24T22:55:12.186Z,23.94
2024-04-24T22:57:14.211Z,23.94
2024-04-24T22:59:17.155Z,23.96
2024-04-24T23:01:20.570Z,23.97
2024-04-24T23:03:22.514Z,23.98
2024-04-24T23:05:24.384Z,23.99
2024-04-24T23:07:26.289Z,23.99
2024-04-24T23:09:28.207Z,23.98
2024-04-24T23:11:30.063Z,23.99
2024-04-24T23:13:31.754Z,23.95
2024-04-24T23:15:33.429Z,23.98
2024-04-24T23:17:35.486Z,23.95
2024-04-24T23:19:38.038Z,23.95
2024-04-24T23:21:39.749Z,23.95
2024-04-24T23:23:41.973Z,23.96
2024-04-24T23:25:43.689Z,23.98
2024-04-24T23:27:45.386Z,23.98
2024-04-24T23:29:49.163Z,24.00
2024-04-24T23:31:50.975Z,23.99
2024-04-24T23:33:53.389Z,24.01
2024-04-24T23:35:55.119Z,23.99
2024-04-24T23:37:57.083Z,23.98
2024-04-24T23:39:58.775Z,24.00
2024-04-24T23:42:00.505Z,23.98
2024-04-24T23:44:02.849Z,23.97
2024-04-24T23:46:05.727Z,23.96
2024-04-24T23:48:08.020Z,23.97
2024-04-24T23:50:10.074Z,23.98
2024-04-24T23:52:11.850Z,23.94
2024-04-24T23:54:13.535Z,24.01
2024-04-24T23:56:18.557Z,24.00
2024-04-24T23:58:20.518Z,24.02
